Terminal Aerodrome Forecast
Issued by NWS Mt. Holly, NJ

Home | Current Version | Previous Version | Text Only | Print | Product List | Glossary On
Versions: 1 2 3 4 5 6 7 8 9 10 11 12 13 14 15 16 17 18 19 20 21 22 23 24 25 26 27 28 29 30 31 32 33 34 35 36 37 38 39 40 41 42
000
FTAK31 PAFC 222347
TAFABE
TAF
PABE 222347Z 2300/2324 27014G22KT 1SM -SN BLSN SCT015 OVC025
     FM230600 23009KT 4SM -SN BR SCT015 OVC035
     FM230900 22007KT P6SM SCT015 OVC035
     FM231900 18007KT P6SM VCSH SCT025 OVC035=

USA.gov is the U.S. government's official web portal to all federal, state and local government web resources and services.